createdAt,value
2018-06-01T00:00:23.160Z,96677.11
2018-06-01T00:02:49.017Z,96681.33
2018-06-01T00:05:14.838Z,96678.98
2018-06-01T00:07:40.680Z,96680.88
2018-06-01T00:10:06.532Z,96688.54
2018-06-01T00:12:32.369Z,96690.16
2018-06-01T00:14:58.220Z,96687.95
2018-06-01T00:17:24.117Z,96687.13
2018-06-01T00:19:49.976Z,96682.77
2018-06-01T00:22:15.819Z,96692.05
2018-06-01T00:24:41.692Z,96693.94
2018-06-01T00:27:07.553Z,96697.51
2018-06-01T00:29:33.425Z,96697.62
2018-06-01T00:31:59.297Z,96708.73
2018-06-01T00:34:25.161Z,96708.36
2018-06-01T00:46:36.081Z,96733.25
2018-06-01T00:49:01.941Z,96737.05
2018-06-01T00:51:27.775Z,96749.95
2018-06-01T00:53:53.640Z,96752.00
2018-06-01T00:56:19.494Z,96760.22
2018-06-01T00:58:45.392Z,96766.78
2018-06-01T01:01:11.270Z,96763.75
2018-06-01T01:03:37.120Z,96762.56
2018-06-01T01:06:02.982Z,96760.47
2018-06-01T01:08:28.841Z,96752.72
2018-06-01T01:10:54.674Z,96746.24
2018-06-01T01:13:20.540Z,96740.12
2018-06-01T01:15:46.422Z,96737.64
2018-06-01T01:18:12.409Z,96743.30
2018-06-01T01:20:38.277Z,96746.09
2018-06-01T01:23:04.123Z,96745.53
2018-06-01T01:25:29.995Z,96750.80
2018-06-01T01:27:55.848Z,96749.18
2018-06-01T01:30:21.697Z,96759.77
2018-06-01T01:32:47.528Z,96760.97
2018-06-01T01:35:13.389Z,96770.05
2018-06-01T01:37:39.272Z,96805.79
2018-06-01T01:40:05.129Z,96874.48
2018-06-01T01:42:30.971Z,96889.75
2018-06-01T01:44:56.832Z,96888.78
2018-06-01T01:47:22.722Z,96877.33
2018-06-01T01:49:52.619Z,96884.19
2018-06-01T01:52:18.477Z,96883.63
2018-06-01T01:54:44.308Z,96886.58
2018-06-01T01:57:10.164Z,96877.28
2018-06-01T01:59:36.075Z,96860.04
2018-06-01T02:02:01.940Z,96865.19
2018-06-01T02:04:27.776Z,96866.09
2018-06-01T02:06:53.633Z,96863.66
2018-06-01T02:09:19.497Z,96870.50
2018-06-01T02:11:45.375Z,96859.28
2018-06-01T02:14:11.265Z,96861.11
2018-06-01T02:16:37.205Z,96873.27
2018-06-01T02:19:03.056Z,96872.86
2018-06-01T02:21:28.904Z,96861.70
2018-06-01T02:23:54.811Z,96854.44
2018-06-01T02:26:20.682Z,96859.47
2018-06-01T02:28:46.627Z,96867.80
2018-06-01T02:31:12.507Z,96873.41
2018-06-01T02:33:38.378Z,96864.66
2018-06-01T02:36:04.227Z,96855.38
2018-06-01T02:38:30.123Z,96871.06
2018-06-01T02:40:55.991Z,96881.04
2018-06-01T02:43:21.830Z,96870.03
2018-06-01T02:45:47.671Z,96867.70
2018-06-01T02:48:13.563Z,96872.28
2018-06-01T02:50:40.630Z,96867.70
2018-06-01T02:53:06.465Z,96864.59
2018-06-01T02:55:32.316Z,96861.77
2018-06-01T02:57:58.179Z,96878.72
2018-06-01T03:00:24.028Z,96876.95
2018-06-01T03:02:49.868Z,96877.43
2018-06-01T03:05:15.778Z,96878.95
2018-06-01T03:07:41.654Z,96892.71
2018-06-01T03:10:07.542Z,96905.06
2018-06-01T03:12:33.430Z,96903.80
2018-06-01T03:14:59.294Z,96887.38
2018-06-01T03:17:25.157Z,96886.84
2018-06-01T03:19:51.009Z,96892.20
2018-06-01T03:22:16.854Z,96897.28
2018-06-01T03:24:42.704Z,96898.80
2018-06-01T03:27:08.530Z,96900.34
2018-06-01T03:29:34.384Z,96901.06
2018-06-01T03:32:00.245Z,96910.05
2018-06-01T03:34:26.120Z,96927.44
2018-06-01T03:36:51.972Z,96938.19
2018-06-01T03:39:17.836Z,96964.73
2018-06-01T03:41:43.694Z,96982.95
2018-06-01T03:44:09.533Z,96994.05
2018-06-01T03:46:35.378Z,96999.09
2018-06-01T03:49:01.293Z,96997.76
2018-06-01T03:51:27.161Z,96988.17
2018-06-01T03:53:53.006Z,96991.05
2018-06-01T03:56:18.878Z,96984.09
2018-06-01T03:58:44.696Z,96988.30
2018-06-01T04:01:10.642Z,96974.77
2018-06-01T04:03:36.464Z,96973.70
2018-06-01T04:06:02.334Z,96980.73
2018-06-01T04:08:28.185Z,96983.63
2018-06-01T04:10:54.070Z,96983.47
2018-06-01T04:13:19.885Z,96979.25
2018-06-01T04:15:45.744Z,96979.48
2018-06-01T04:18:11.586Z,96974.61
2018-06-01T04:20:37.424Z,96970.18
2018-06-01T04:23:03.261Z,96960.58
2018-06-01T04:25:29.124Z,96957.58
2018-06-01T04:27:54.971Z,96956.44
2018-06-01T04:30:20.817Z,96948.95
2018-06-01T04:32:46.653Z,96951.95
2018-06-01T04:35:12.489Z,96967.61
2018-06-01T04:37:38.384Z,96960.48
2018-06-01T04:40:04.233Z,96953.80
2018-06-01T04:42:30.073Z,96956.27
2018-06-01T04:44:55.930Z,96955.46
2018-06-01T04:47:21.761Z,96962.97
2018-06-01T04:49:47.616Z,96971.20
2018-06-01T04:52:13.493Z,96970.11
2018-06-01T04:54:39.383Z,96959.53
2018-06-01T04:57:05.254Z,96951.87
2018-06-01T04:59:31.085Z,96952.02
2018-06-01T05:01:56.945Z,96967.31
2018-06-01T05:04:22.809Z,96970.52
2018-06-01T05:06:48.652Z,96968.42
2018-06-01T05:09:14.465Z,96974.19
2018-06-01T05:11:40.303Z,96971.75
2018-06-01T05:14:06.152Z,96974.14
2018-06-01T05:16:32.010Z,96969.63
2018-06-01T05:18:57.872Z,96950.80
2018-06-01T05:21:23.736Z,96939.45
2018-06-01T05:23:49.589Z,96931.64
2018-06-01T05:26:15.416Z,96943.44
2018-06-01T05:28:41.265Z,96951.63
2018-06-01T05:31:07.106Z,96947.77
2018-06-01T05:33:32.963Z,96950.41
2018-06-01T05:35:58.789Z,96947.14
2018-06-01T05:38:24.629Z,96948.55
2018-06-01T05:40:50.495Z,96939.13
2018-06-01T05:43:16.377Z,96941.30
2018-06-01T05:45:42.236Z,96948.03
2018-06-01T05:48:08.082Z,96944.27
2018-06-01T05:50:33.933Z,96941.92
2018-06-01T05:52:59.845Z,96945.84
2018-06-01T05:55:25.690Z,96942.05
2018-06-01T05:57:51.552Z,96946.20
2018-06-01T06:00:17.387Z,96946.11
2018-06-01T06:02:43.264Z,96948.19
2018-06-01T06:05:09.082Z,96951.75
2018-06-01T06:07:34.918Z,96955.34
2018-06-01T06:10:00.802Z,96951.98
2018-06-01T06:12:26.633Z,96952.70
2018-06-01T06:14:52.497Z,96961.60
2018-06-01T06:17:18.365Z,96967.72
2018-06-01T06:19:44.226Z,96981.38
2018-06-01T06:22:10.080Z,96988.22
2018-06-01T06:24:35.936Z,96997.25
2018-06-01T06:27:01.802Z,97000.27
2018-06-01T06:29:27.639Z,96992.19
2018-06-01T06:31:53.520Z,96997.47
2018-06-01T06:34:19.405Z,97005.42
2018-06-01T06:36:45.265Z,97004.57
2018-06-01T06:39:11.121Z,97012.42
2018-06-01T06:41:37.008Z,97014.38
2018-06-01T06:44:02.868Z,97016.22
2018-06-01T06:46:28.744Z,97025.92
2018-06-01T06:48:54.598Z,97024.52
2018-06-01T06:51:20.450Z,97024.52
2018-06-01T06:53:46.372Z,97024.80
2018-06-01T06:56:12.223Z,97019.37
2018-06-01T06:58:38.096Z,97017.44
2018-06-01T07:01:04.017Z,97009.40
2018-06-01T07:03:29.865Z,97007.23
2018-06-01T07:05:55.724Z,97010.94
2018-06-01T07:08:21.590Z,97012.28
2018-06-01T07:10:47.468Z,97020.31
2018-06-01T07:13:13.338Z,97028.98
2018-06-01T07:15:39.189Z,97025.31
2018-06-01T07:18:05.062Z,97026.70
2018-06-01T07:20:30.888Z,97027.41
2018-06-01T07:22:56.744Z,97026.75
2018-06-01T07:25:22.590Z,97027.23
2018-06-01T07:27:48.490Z,97026.91
2018-06-01T07:30:14.312Z,97024.98
2018-06-01T07:32:40.240Z,97032.49
2018-06-01T07:35:06.076Z,97038.20
2018-06-01T07:37:31.958Z,97040.33
2018-06-01T07:39:57.829Z,97045.08
2018-06-01T07:42:23.687Z,97033.88
2018-06-01T07:44:49.557Z,97043.19
2018-06-01T07:47:15.434Z,97047.81
2018-06-01T07:49:41.277Z,97053.02
2018-06-01T07:52:07.117Z,97055.42
2018-06-01T07:54:32.979Z,97055.05
2018-06-01T07:56:58.849Z,97054.34
2018-06-01T07:59:24.713Z,97059.10
2018-06-01T08:01:50.656Z,97058.15
2018-06-01T08:04:16.493Z,97061.94
2018-06-01T08:06:42.344Z,97076.69
2018-06-01T08:09:08.245Z,97079.45
2018-06-01T08:11:34.065Z,97081.75
2018-06-01T08:13:59.947Z,97085.50
2018-06-01T08:16:25.800Z,97086.14
2018-06-01T08:18:51.649Z,97092.64
2018-06-01T08:21:17.473Z,97091.64
2018-06-01T08:23:43.332Z,97095.26
2018-06-01T08:26:09.192Z,97100.66
2018-06-01T08:28:35.049Z,97101.94
2018-06-01T08:31:00.895Z,97101.45
2018-06-01T08:33:26.709Z,97101.10
2018-06-01T08:35:52.558Z,97102.61
2018-06-01T08:38:18.405Z,97114.27
2018-06-01T08:40:44.285Z,97112.87
2018-06-01T08:43:10.136Z,97118.25
2018-06-01T08:45:35.976Z,97116.03
2018-06-01T08:48:01.815Z,97114.63
2018-06-01T08:50:27.693Z,97118.29
2018-06-01T08:52:53.512Z,97115.62
2018-06-01T08:55:19.352Z,97122.89
2018-06-01T08:57:45.177Z,97117.72
2018-06-01T09:00:11.059Z,97119.33
2018-06-01T09:02:36.955Z,97120.42
2018-06-01T09:05:02.853Z,97121.36
2018-06-01T09:07:28.723Z,97116.17
2018-06-01T09:09:54.591Z,97121.77
2018-06-01T09:12:20.433Z,97114.61
2018-06-01T09:14:46.270Z,97114.14
2018-06-01T09:17:12.129Z,97115.39
2018-06-01T09:19:37.953Z,97116.91
2018-06-01T09:22:03.857Z,97119.89
2018-06-01T09:24:29.713Z,97120.45
2018-06-01T09:26:55.553Z,97119.28
2018-06-01T09:29:21.429Z,97125.38
2018-06-01T09:31:47.285Z,97120.75
2018-06-01T09:34:13.146Z,97125.91
2018-06-01T09:36:38.984Z,97122.73
2018-06-01T09:39:04.868Z,97120.73
2018-06-01T09:41:30.700Z,97124.43
2018-06-01T09:43:56.650Z,97122.25
2018-06-01T09:46:22.610Z,97120.89
2018-06-01T09:48:48.500Z,97113.64
2018-06-01T09:51:14.348Z,97115.92
2018-06-01T09:53:40.164Z,97118.31
2018-06-01T09:56:06.044Z,97114.73
2018-06-01T09:58:31.902Z,97111.52
2018-06-01T10:00:59.810Z,97114.63
2018-06-01T10:03:25.811Z,97107.74
2018-06-01T10:05:51.652Z,97113.11
2018-06-01T10:08:17.489Z,97107.91
2018-06-01T10:10:43.336Z,97104.81
2018-06-01T10:13:09.181Z,97103.22
2018-06-01T10:15:35.070Z,97100.09
2018-06-01T10:18:00.937Z,97089.00
2018-06-01T10:20:26.864Z,97091.77
2018-06-01T10:22:53.565Z,97090.80
2018-06-01T10:25:19.426Z,97089.27
2018-06-01T10:27:45.287Z,97093.89
2018-06-01T10:30:11.129Z,97093.27
2018-06-01T10:32:36.985Z,97092.77
2018-06-01T10:35:02.942Z,97090.97
2018-06-01T10:37:28.860Z,97090.00
2018-06-01T10:39:54.720Z,97084.08
2018-06-01T10:42:20.563Z,97092.16
2018-06-01T10:44:46.418Z,97090.84
2018-06-01T10:47:12.230Z,97081.16
2018-06-01T10:49:38.119Z,97081.31
2018-06-01T10:52:03.985Z,97075.04
2018-06-01T10:54:30.044Z,97079.35
2018-06-01T10:56:55.862Z,97074.69
2018-06-01T10:59:21.737Z,97076.80
2018-06-01T11:01:47.606Z,97069.16
2018-06-01T11:04:13.462Z,97066.98
2018-06-01T11:06:39.323Z,97067.23
2018-06-01T11:09:05.170Z,97059.73
2018-06-01T11:11:31.017Z,97066.61
2018-06-01T11:13:56.874Z,97066.58
2018-06-01T11:16:22.712Z,97059.27
2018-06-01T11:18:48.561Z,97059.23
2018-06-01T11:21:14.418Z,97058.66
2018-06-01T11:23:40.238Z,97061.73
2018-06-01T11:26:06.161Z,97063.00
2018-06-01T11:28:32.022Z,97058.95
2018-06-01T11:30:57.941Z,97068.19
2018-06-01T11:33:23.837Z,97061.39
2018-06-01T11:35:49.728Z,97061.05
2018-06-01T11:38:16.704Z,97061.23
2018-06-01T11:40:42.604Z,97063.75
2018-06-01T11:43:08.469Z,97066.77
2018-06-01T11:45:34.297Z,97066.70
2018-06-01T11:48:00.136Z,97068.94
2018-06-01T11:50:26.013Z,97070.70
2018-06-01T11:52:51.847Z,97074.17
2018-06-01T11:55:17.707Z,97070.28
2018-06-01T11:57:43.594Z,97077.62
2018-06-01T12:00:09.463Z,97067.95
2018-06-01T12:02:36.150Z,97076.45
2018-06-01T12:05:02.001Z,97072.92
2018-06-01T12:07:27.852Z,97069.63
2018-06-01T12:09:53.715Z,97056.60
2018-06-01T12:12:19.564Z,97059.55
2018-06-01T12:14:45.440Z,97065.10
2018-06-01T12:17:11.298Z,97060.17
2018-06-01T12:19:37.152Z,97062.27
2018-06-01T12:22:03.030Z,97065.95
2018-06-01T12:24:28.894Z,97064.83
2018-06-01T12:26:54.756Z,97063.53
2018-06-01T12:29:20.684Z,97055.42
2018-06-01T12:31:46.537Z,97051.52
2018-06-01T12:34:12.398Z,97048.11
2018-06-01T12:36:38.261Z,97049.84
2018-06-01T12:39:04.974Z,97048.34
2018-06-01T12:41:30.846Z,97046.41
2018-06-01T12:43:56.673Z,97047.91
2018-06-01T12:46:22.537Z,97044.22
2018-06-01T12:48:48.415Z,97048.34
2018-06-01T12:51:14.311Z,97043.59
2018-06-01T12:53:40.146Z,97044.97
2018-06-01T12:56:05.989Z,97037.94
2018-06-01T12:58:31.841Z,97038.77
2018-06-01T13:00:57.744Z,97026.41
2018-06-01T13:03:23.634Z,97025.39
2018-06-01T13:05:49.469Z,97025.64
2018-06-01T13:08:15.319Z,97023.34
2018-06-01T13:10:41.193Z,97017.74
2018-06-01T13:13:07.077Z,97007.33
2018-06-01T13:15:32.947Z,97002.41
2018-06-01T13:17:58.823Z,97003.05
2018-06-01T13:20:24.708Z,97003.13
2018-06-01T13:22:50.561Z,97006.69
2018-06-01T13:25:16.426Z,97003.56
2018-06-01T13:27:42.284Z,97005.62
2018-06-01T13:30:08.168Z,96998.97
2018-06-01T13:32:34.040Z,97002.05
2018-06-01T13:34:59.933Z,97002.14
2018-06-01T13:37:25.797Z,97005.25
2018-06-01T13:39:51.613Z,97000.86
2018-06-01T13:42:17.454Z,96999.90
2018-06-01T13:44:43.315Z,96999.87
2018-06-01T13:47:09.285Z,97005.59
2018-06-01T13:49:35.141Z,97006.36
2018-06-01T13:52:01.839Z,97011.56
2018-06-01T13:54:27.715Z,97008.70
2018-06-01T13:56:53.618Z,97000.00
2018-06-01T13:59:19.470Z,97005.17
2018-06-01T14:01:45.412Z,97002.77
2018-06-01T14:04:11.306Z,97000.08
2018-06-01T14:06:37.202Z,96995.34
2018-06-01T14:09:05.136Z,96995.65
2018-06-01T14:11:31.026Z,96996.50
2018-06-01T14:13:56.912Z,97000.04
2018-06-01T14:16:22.827Z,96991.27
2018-06-01T14:18:48.833Z,96995.58
2018-06-01T14:21:14.789Z,96988.87
2018-06-01T14:23:40.669Z,96990.77
2018-06-01T14:26:06.557Z,96989.09
2018-06-01T14:28:32.456Z,96992.06
2018-06-01T14:30:58.325Z,96990.62
2018-06-01T14:33:24.198Z,96994.28
2018-06-01T14:35:50.108Z,96985.07
2018-06-01T14:38:16.001Z,96984.13
2018-06-01T14:40:41.944Z,96980.56
2018-06-01T14:43:07.811Z,96977.15
2018-06-01T14:45:33.784Z,96977.78
2018-06-01T14:47:59.721Z,96976.66
2018-06-01T14:50:25.677Z,96970.83
2018-06-01T14:52:51.583Z,96969.23
2018-06-01T14:55:17.469Z,96975.61
2018-06-01T14:57:43.473Z,96975.33
2018-06-01T15:00:09.358Z,96966.52
2018-06-01T15:02:35.229Z,96962.58
2018-06-01T15:05:01.109Z,96971.63
2018-06-01T15:07:27.001Z,96965.53
2018-06-01T15:09:52.880Z,96965.00
2018-06-01T15:12:18.778Z,96972.95
2018-06-01T15:14:44.658Z,96962.05
2018-06-01T15:17:10.546Z,96945.91
2018-06-01T15:19:36.418Z,96959.87
2018-06-01T15:22:02.277Z,96955.08
2018-06-01T15:24:28.140Z,96962.02
2018-06-01T15:26:53.995Z,96957.91
2018-06-01T15:29:19.898Z,96956.73
2018-06-01T15:31:45.767Z,96958.80
2018-06-01T15:34:11.614Z,96962.43
2018-06-01T15:36:37.529Z,96967.82
2018-06-01T15:39:05.230Z,96967.76
2018-06-01T15:41:31.134Z,96973.21
2018-06-01T15:43:57.027Z,96975.31
2018-06-01T15:46:22.871Z,96982.39
2018-06-01T15:48:48.744Z,96985.41
2018-06-01T15:51:14.645Z,96981.99
2018-06-01T15:53:40.551Z,96980.28
2018-06-01T15:56:06.448Z,96980.48
2018-06-01T15:58:32.601Z,96981.81
2018-06-01T16:00:58.476Z,96987.83
2018-06-01T16:03:24.373Z,96989.47
2018-06-01T16:05:50.257Z,96991.77
2018-06-01T16:08:16.154Z,96984.98
2018-06-01T16:10:42.023Z,96990.28
2018-06-01T16:13:07.928Z,96987.59
2018-06-01T16:15:33.797Z,96997.19
2018-06-01T16:17:59.654Z,96989.53
2018-06-01T16:20:25.606Z,96996.13
2018-06-01T16:22:51.513Z,96989.72
2018-06-01T16:25:17.374Z,96991.84
2018-06-01T16:27:43.262Z,96992.25
2018-06-01T16:30:09.113Z,96985.80
2018-06-01T16:32:34.997Z,96987.23
2018-06-01T16:35:00.867Z,96989.73
2018-06-01T16:37:26.775Z,96984.13
2018-06-01T16:39:52.664Z,96987.10
2018-06-01T16:42:18.555Z,96986.81
2018-06-01T16:44:44.508Z,96979.64
2018-06-01T16:47:10.399Z,96980.63
2018-06-01T16:49:36.266Z,96985.02
2018-06-01T16:52:02.153Z,96982.84
2018-06-01T16:54:28.107Z,96979.75
2018-06-01T16:56:53.909Z,96983.45
2018-06-01T16:59:19.799Z,96987.87
2018-06-01T17:01:45.675Z,96982.05
2018-06-01T17:04:11.569Z,96983.36
2018-06-01T17:06:37.440Z,96986.59
2018-06-01T17:09:03.358Z,96983.04
2018-06-01T17:11:29.219Z,96983.59
2018-06-01T17:13:55.117Z,96985.06
2018-06-01T17:16:21.008Z,96979.41
2018-06-01T17:18:46.858Z,96982.09
2018-06-01T17:21:12.778Z,96984.22
2018-06-01T17:23:38.667Z,96986.41
2018-06-01T17:26:04.598Z,96982.41
2018-06-01T17:28:30.435Z,96981.91
2018-06-01T17:30:56.337Z,96982.40
2018-06-01T17:33:22.253Z,96983.00
2018-06-01T17:35:48.088Z,96979.69
2018-06-01T17:38:13.965Z,96974.33
2018-06-01T17:40:39.847Z,96977.59
2018-06-01T17:43:05.751Z,96977.38
2018-06-01T17:45:31.652Z,96968.04
2018-06-01T17:47:57.570Z,96976.23
2018-06-01T17:50:23.438Z,96966.61
2018-06-01T17:52:49.309Z,96968.59
2018-06-01T17:55:15.169Z,96968.77
2018-06-01T17:57:41.053Z,96972.09
2018-06-01T18:00:06.979Z,96966.81
2018-06-01T18:02:32.783Z,96968.34
2018-06-01T18:04:58.638Z,96962.63
2018-06-01T18:07:24.498Z,96957.02
2018-06-01T18:09:50.416Z,96956.44
2018-06-01T18:12:16.318Z,96950.63
2018-06-01T18:14:42.206Z,96955.51
2018-06-01T18:17:08.075Z,96948.20
2018-06-01T18:19:33.965Z,96948.50
2018-06-01T18:21:59.910Z,96946.67
2018-06-01T18:24:25.795Z,96943.00
2018-06-01T18:26:51.664Z,96945.75
2018-06-01T18:29:17.574Z,96957.33
2018-06-01T18:31:43.462Z,96957.70
2018-06-01T18:34:09.329Z,96959.36
2018-06-01T18:36:35.207Z,96954.23
2018-06-01T18:39:01.074Z,96959.25
2018-06-01T18:41:26.937Z,96962.54
2018-06-01T18:43:53.616Z,96965.06
2018-06-01T18:46:19.517Z,96970.62
2018-06-01T18:48:45.394Z,96975.06
2018-06-01T18:51:11.294Z,96978.71
2018-06-01T18:53:37.265Z,96984.50
2018-06-01T18:56:03.196Z,96987.56
2018-06-01T18:58:29.105Z,96989.46
2018-06-01T19:00:55.022Z,96995.59
2018-06-01T19:03:20.907Z,96994.62
2018-06-01T19:05:46.762Z,97002.88
2018-06-01T19:08:12.736Z,96998.56
2018-06-01T19:10:38.577Z,97013.94
2018-06-01T19:13:04.562Z,97005.87
2018-06-01T19:15:30.422Z,97008.94
2018-06-01T19:17:56.296Z,97013.98
2018-06-01T19:20:22.182Z,97020.48
2018-06-01T19:22:48.074Z,97025.20
2018-06-01T19:25:13.969Z,97033.34
2018-06-01T19:27:39.865Z,97037.67
2018-06-01T19:30:05.793Z,97044.06
2018-06-01T19:32:31.661Z,97039.53
2018-06-01T19:34:57.522Z,97043.27
2018-06-01T19:37:23.399Z,97051.33
2018-06-01T19:39:49.295Z,97052.61
2018-06-01T19:42:15.239Z,97048.33
2018-06-01T19:44:41.177Z,97053.30
2018-06-01T19:47:07.057Z,97055.87
2018-06-01T19:49:32.953Z,97055.65
2018-06-01T19:51:58.824Z,97056.17
2018-06-01T19:54:24.729Z,97052.95
2018-06-01T19:56:50.618Z,97055.17
2018-06-01T19:59:16.511Z,97061.59
2018-06-01T20:01:42.394Z,97057.90
2018-06-01T20:04:08.269Z,97049.50
2018-06-01T20:06:34.249Z,97050.60
2018-06-01T20:09:00.102Z,97054.14
2018-06-01T20:11:25.937Z,97055.93
2018-06-01T20:13:51.813Z,97058.02
2018-06-01T20:16:17.667Z,97051.03
2018-06-01T20:18:43.514Z,97053.42
2018-06-01T20:21:09.387Z,97052.52
2018-06-01T20:23:35.301Z,97052.08
2018-06-01T20:26:01.170Z,97053.81
2018-06-01T20:28:27.088Z,97038.20
2018-06-01T20:30:52.935Z,97050.36
2018-06-01T20:33:18.832Z,97049.98
2018-06-01T20:35:44.728Z,97053.70
2018-06-01T20:38:10.567Z,97044.30
2018-06-01T20:40:36.412Z,97056.95
2018-06-01T20:43:02.321Z,97050.30
2018-06-01T20:45:28.227Z,97059.14
2018-06-01T20:47:54.106Z,97067.55
2018-06-01T20:50:19.987Z,97065.13
2018-06-01T20:52:45.911Z,97069.69
2018-06-01T20:55:11.778Z,97069.30
2018-06-01T20:57:37.673Z,97062.72
2018-06-01T21:00:03.641Z,97060.84
2018-06-01T21:02:29.557Z,97068.15
2018-06-01T21:04:55.410Z,97072.35
2018-06-01T21:07:21.269Z,97070.97
2018-06-01T21:09:47.251Z,97075.39
2018-06-01T21:12:13.149Z,97076.39
2018-06-01T21:14:39.028Z,97068.27
2018-06-01T21:17:04.910Z,97077.33
2018-06-01T21:19:30.799Z,97081.16
2018-06-01T21:21:56.720Z,97077.59
2018-06-01T21:24:22.575Z,97067.30
2018-06-01T21:26:48.458Z,97080.73
2018-06-01T21:29:14.340Z,97072.28
2018-06-01T21:31:40.252Z,97071.11
2018-06-01T21:34:06.145Z,97078.88
2018-06-01T21:36:32.025Z,97075.73
2018-06-01T21:38:57.941Z,97083.53
2018-06-01T21:41:23.792Z,97080.27
2018-06-01T21:43:49.695Z,97076.86
2018-06-01T21:46:15.584Z,97072.02
2018-06-01T21:48:41.465Z,97078.44
2018-06-01T21:51:07.324Z,97071.46
2018-06-01T21:53:33.161Z,97072.05
2018-06-01T21:55:59.022Z,97070.73
2018-06-01T21:58:24.889Z,97074.20
2018-06-01T22:00:50.748Z,97075.53
2018-06-01T22:03:16.632Z,97082.84
2018-06-01T22:05:42.492Z,97077.45
2018-06-01T22:08:08.356Z,97079.33
2018-06-01T22:10:34.270Z,97074.63
2018-06-01T22:13:00.132Z,97078.97
2018-06-01T22:15:25.996Z,97073.48
2018-06-01T22:17:51.865Z,97081.39
2018-06-01T22:20:17.782Z,97082.61
2018-06-01T22:22:43.669Z,97087.88
2018-06-01T22:25:09.556Z,97097.17
2018-06-01T22:27:35.439Z,97095.72
2018-06-01T22:30:01.281Z,97098.42
2018-06-01T22:32:27.113Z,97097.06
2018-06-01T22:34:52.981Z,97097.23
2018-06-01T22:37:18.871Z,97098.94
2018-06-01T22:39:44.734Z,97094.48
2018-06-01T22:42:10.621Z,97101.34
2018-06-01T22:44:36.445Z,97100.27
2018-06-01T22:47:02.321Z,97094.23
2018-06-01T22:49:28.152Z,97091.13
2018-06-01T22:51:54.037Z,97093.21
2018-06-01T22:54:19.889Z,97099.78
2018-06-01T22:56:45.772Z,97102.09
2018-06-01T22:59:11.621Z,97095.40
2018-06-01T23:01:37.480Z,97102.95
2018-06-01T23:04:03.345Z,97101.47
2018-06-01T23:06:29.229Z,97098.13
2018-06-01T23:08:55.074Z,97092.65
2018-06-01T23:11:20.917Z,97094.66
2018-06-01T23:13:46.765Z,97095.53
2018-06-01T23:16:12.616Z,97086.08
2018-06-01T23:18:38.494Z,97084.71
2018-06-01T23:21:04.349Z,97086.33
2018-06-01T23:23:30.254Z,97089.25
2018-06-01T23:25:56.116Z,97092.83
2018-06-01T23:28:21.976Z,97086.75
2018-06-01T23:30:47.846Z,97093.95
2018-06-01T23:33:13.696Z,97091.50
2018-06-01T23:35:39.580Z,97087.72
2018-06-01T23:38:05.398Z,97085.94
2018-06-01T23:40:31.269Z,97089.44
2018-06-01T23:42:57.109Z,97085.36
2018-06-01T23:45:22.968Z,97097.77
2018-06-01T23:47:48.809Z,97090.67
2018-06-01T23:50:14.665Z,97091.77
2018-06-01T23:52:40.586Z,97088.78
2018-06-01T23:55:06.469Z,97091.66
2018-06-01T23:57:32.328Z,97092.89
2018-06-01T23:59:58.173Z,97095.50
